sensor_id;sensor_type;location;lat;lon;timestamp;pressure;altitude;pressure_sealevel;temperature
20733;BMP180;10527;52.124;5.196;2024-02-28T00:00:21;101848.00;;;16.30
20733;BMP180;10527;52.124;5.196;2024-02-28T00:02:48;101852.00;;;16.30
20733;BMP180;10527;52.124;5.196;2024-02-28T00:05:17;101856.00;;;16.30
20733;BMP180;10527;52.124;5.196;2024-02-28T00:07:44;101850.00;;;16.30
20733;BMP180;10527;52.124;5.196;2024-02-28T00:10:13;101851.00;;;16.20
20733;BMP180;10527;52.124;5.196;2024-02-28T00:12:41;101844.00;;;16.20
20733;BMP180;10527;52.124;5.196;2024-02-28T00:15:09;101845.00;;;16.20
20733;BMP180;10527;52.124;5.196;2024-02-28T00:17:39;101851.00;;;16.10
20733;BMP180;10527;52.124;5.196;2024-02-28T00:20:10;101846.00;;;16.10
20733;BMP180;10527;52.124;5.196;2024-02-28T00:22:38;101851.00;;;16.00
20733;BMP180;10527;52.124;5.196;2024-02-28T00:25:06;101850.00;;;16.00
20733;BMP180;10527;52.124;5.196;2024-02-28T00:27:35;101856.00;;;16.00
20733;BMP180;10527;52.124;5.196;2024-02-28T00:30:03;101856.00;;;15.90
20733;BMP180;10527;52.124;5.196;2024-02-28T00:32:34;101854.00;;;15.90
20733;BMP180;10527;52.124;5.196;2024-02-28T00:35:01;101858.00;;;15.80
20733;BMP180;10527;52.124;5.196;2024-02-28T00:37:30;101851.00;;;15.80
20733;BMP180;10527;52.124;5.196;2024-02-28T00:40:02;101857.00;;;15.70
20733;BMP180;10527;52.124;5.196;2024-02-28T00:42:29;101862.00;;;15.70
20733;BMP180;10527;52.124;5.196;2024-02-28T00:44:57;101855.00;;;15.60
20733;BMP180;10527;52.124;5.196;2024-02-28T00:47:24;101854.00;;;15.60
20733;BMP180;10527;52.124;5.196;2024-02-28T00:49:52;101857.00;;;15.50
20733;BMP180;10527;52.124;5.196;2024-02-28T00:52:20;101850.00;;;15.50
20733;BMP180;10527;52.124;5.196;2024-02-28T00:54:49;101854.00;;;15.50
20733;BMP180;10527;52.124;5.196;2024-02-28T00:57:16;101849.00;;;15.40
20733;BMP180;10527;52.124;5.196;2024-02-28T00:59:44;101851.00;;;15.40
20733;BMP180;10527;52.124;5.196;2024-02-28T01:02:11;101852.00;;;15.40
20733;BMP180;10527;52.124;5.196;2024-02-28T01:04:41;101847.00;;;15.40
20733;BMP180;10527;52.124;5.196;2024-02-28T01:07:08;101846.00;;;15.30
20733;BMP180;10527;52.124;5.196;2024-02-28T01:09:36;101850.00;;;15.30
20733;BMP180;10527;52.124;5.196;2024-02-28T01:12:03;101856.00;;;15.30
20733;BMP180;10527;52.124;5.196;2024-02-28T01:14:31;101859.00;;;15.30
20733;BMP180;10527;52.124;5.196;2024-02-28T01:16:58;101846.00;;;15.30
20733;BMP180;10527;52.124;5.196;2024-02-28T01:19:26;101850.00;;;15.20
20733;BMP180;10527;52.124;5.196;2024-02-28T01:21:53;101840.00;;;15.20
20733;BMP180;10527;52.124;5.196;2024-02-28T01:24:20;101842.00;;;15.20
20733;BMP180;10527;52.124;5.196;2024-02-28T01:26:48;101842.00;;;15.10
20733;BMP180;10527;52.124;5.196;2024-02-28T01:29:15;101845.00;;;15.10
20733;BMP180;10527;52.124;5.196;2024-02-28T01:31:44;101841.00;;;15.10
20733;BMP180;10527;52.124;5.196;2024-02-28T01:34:11;101837.00;;;15.10
20733;BMP180;10527;52.124;5.196;2024-02-28T01:36:39;101832.00;;;15.10
20733;BMP180;10527;52.124;5.196;2024-02-28T01:39:06;101838.00;;;15.10
20733;BMP180;10527;52.124;5.196;2024-02-28T01:41:34;101835.00;;;15.10
20733;BMP180;10527;52.124;5.196;2024-02-28T01:44:03;101829.00;;;15.10
20733;BMP180;10527;52.124;5.196;2024-02-28T01:46:30;101838.00;;;15.10
20733;BMP180;10527;52.124;5.196;2024-02-28T01:48:59;101825.00;;;15.10
20733;BMP180;10527;52.124;5.196;2024-02-28T01:51:27;101825.00;;;15.00
20733;BMP180;10527;52.124;5.196;2024-02-28T01:53:55;101825.00;;;15.00
20733;BMP180;10527;52.124;5.196;2024-02-28T01:56:23;101832.00;;;15.00
20733;BMP180;10527;52.124;5.196;2024-02-28T01:58:53;101828.00;;;15.00
20733;BMP180;10527;52.124;5.196;2024-02-28T02:01:21;101840.00;;;15.00
20733;BMP180;10527;52.124;5.196;2024-02-28T02:03:49;101834.00;;;14.90
20733;BMP180;10527;52.124;5.196;2024-02-28T02:06:17;101823.00;;;14.90
20733;BMP180;10527;52.124;5.196;2024-02-28T02:08:45;101832.00;;;14.90
20733;BMP180;10527;52.124;5.196;2024-02-28T02:11:18;101838.00;;;14.90
20733;BMP180;10527;52.124;5.196;2024-02-28T02:13:52;101838.00;;;14.90
20733;BMP180;10527;52.124;5.196;2024-02-28T02:16:20;101843.00;;;14.80
20733;BMP180;10527;52.124;5.196;2024-02-28T02:18:49;101839.00;;;14.80
20733;BMP180;10527;52.124;5.196;2024-02-28T02:21:19;101838.00;;;14.80
20733;BMP180;10527;52.124;5.196;2024-02-28T02:23:47;101828.00;;;14.80
20733;BMP180;10527;52.124;5.196;2024-02-28T02:26:15;101833.00;;;14.80
20733;BMP180;10527;52.124;5.196;2024-02-28T02:28:42;101835.00;;;14.70
20733;BMP180;10527;52.124;5.196;2024-02-28T02:31:12;101837.00;;;14.70
20733;BMP180;10527;52.124;5.196;2024-02-28T02:33:42;101837.00;;;14.70
20733;BMP180;10527;52.124;5.196;2024-02-28T02:36:10;101837.00;;;14.70
20733;BMP180;10527;52.124;5.196;2024-02-28T02:38:38;101839.00;;;14.70
20733;BMP180;10527;52.124;5.196;2024-02-28T02:41:05;101841.00;;;14.70
20733;BMP180;10527;52.124;5.196;2024-02-28T02:43:33;101837.00;;;14.70
20733;BMP180;10527;52.124;5.196;2024-02-28T02:46:00;101842.00;;;14.70
20733;BMP180;10527;52.124;5.196;2024-02-28T02:48:28;101828.00;;;14.70
20733;BMP180;10527;52.124;5.196;2024-02-28T02:50:56;101832.00;;;14.70
20733;BMP180;10527;52.124;5.196;2024-02-28T02:53:23;101831.00;;;14.70
20733;BMP180;10527;52.124;5.196;2024-02-28T02:55:50;101826.00;;;14.70
20733;BMP180;10527;52.124;5.196;2024-02-28T02:58:18;101823.00;;;14.70
20733;BMP180;10527;52.124;5.196;2024-02-28T03:00:45;101832.00;;;14.70
20733;BMP180;10527;52.124;5.196;2024-02-28T03:03:13;101828.00;;;14.70
20733;BMP180;10527;52.124;5.196;2024-02-28T03:05:40;101831.00;;;14.70
20733;BMP180;10527;52.124;5.196;2024-02-28T03:08:07;101834.00;;;14.70
20733;BMP180;10527;52.124;5.196;2024-02-28T03:10:35;101830.00;;;14.70
20733;BMP180;10527;52.124;5.196;2024-02-28T03:13:02;101828.00;;;14.70
20733;BMP180;10527;52.124;5.196;2024-02-28T03:15:30;101816.00;;;14.70
20733;BMP180;10527;52.124;5.196;2024-02-28T03:17:57;101821.00;;;14.70
20733;BMP180;10527;52.124;5.196;2024-02-28T03:20:25;101814.00;;;14.70
20733;BMP180;10527;52.124;5.196;2024-02-28T03:22:53;101823.00;;;14.70
20733;BMP180;10527;52.124;5.196;2024-02-28T03:25:20;101814.00;;;14.70
20733;BMP180;10527;52.124;5.196;2024-02-28T03:27:49;101810.00;;;14.70
20733;BMP180;10527;52.124;5.196;2024-02-28T03:30:17;101820.00;;;14.70
20733;BMP180;10527;52.124;5.196;2024-02-28T03:32:47;101817.00;;;14.70
20733;BMP180;10527;52.124;5.196;2024-02-28T03:35:14;101821.00;;;14.60
20733;BMP180;10527;52.124;5.196;2024-02-28T03:37:42;101823.00;;;14.60
20733;BMP180;10527;52.124;5.196;2024-02-28T03:40:10;101828.00;;;14.60
20733;BMP180;10527;52.124;5.196;2024-02-28T03:42:37;101821.00;;;14.70
20733;BMP180;10527;52.124;5.196;2024-02-28T03:45:05;101823.00;;;14.70
20733;BMP180;10527;52.124;5.196;2024-02-28T03:47:33;101821.00;;;14.70
20733;BMP180;10527;52.124;5.196;2024-02-28T03:50:00;101821.00;;;14.80
20733;BMP180;10527;52.124;5.196;2024-02-28T03:52:30;101817.00;;;14.80
20733;BMP180;10527;52.124;5.196;2024-02-28T03:54:58;101819.00;;;14.80
20733;BMP180;10527;52.124;5.196;2024-02-28T03:57:25;101819.00;;;14.80
20733;BMP180;10527;52.124;5.196;2024-02-28T03:59:53;101819.00;;;14.90
20733;BMP180;10527;52.124;5.196;2024-02-28T04:02:20;101813.00;;;14.90
20733;BMP180;10527;52.124;5.196;2024-02-28T04:04:47;101817.00;;;14.90
20733;BMP180;10527;52.124;5.196;2024-02-28T04:07:15;101823.00;;;14.90
20733;BMP180;10527;52.124;5.196;2024-02-28T04:09:42;101810.00;;;14.90
20733;BMP180;10527;52.124;5.196;2024-02-28T04:12:11;101818.00;;;14.90
20733;BMP180;10527;52.124;5.196;2024-02-28T04:14:39;101826.00;;;14.90
20733;BMP180;10527;52.124;5.196;2024-02-28T04:17:06;101823.00;;;15.00
20733;BMP180;10527;52.124;5.196;2024-02-28T04:19:34;101820.00;;;15.00
20733;BMP180;10527;52.124;5.196;2024-02-28T04:22:06;101826.00;;;15.00
20733;BMP180;10527;52.124;5.196;2024-02-28T04:24:33;101822.00;;;15.10
20733;BMP180;10527;52.124;5.196;2024-02-28T04:27:01;101829.00;;;15.10
20733;BMP180;10527;52.124;5.196;2024-02-28T04:29:32;101827.00;;;15.20
20733;BMP180;10527;52.124;5.196;2024-02-28T04:31:59;101831.00;;;15.20
20733;BMP180;10527;52.124;5.196;2024-02-28T04:34:27;101826.00;;;15.20
20733;BMP180;10527;52.124;5.196;2024-02-28T04:36:54;101822.00;;;15.20
20733;BMP180;10527;52.124;5.196;2024-02-28T04:39:23;101840.00;;;15.30
20733;BMP180;10527;52.124;5.196;2024-02-28T04:41:51;101832.00;;;15.30
20733;BMP180;10527;52.124;5.196;2024-02-28T04:44:18;101837.00;;;15.30
20733;BMP180;10527;52.124;5.196;2024-02-28T04:46:46;101835.00;;;15.30
20733;BMP180;10527;52.124;5.196;2024-02-28T04:49:14;101836.00;;;15.30
20733;BMP180;10527;52.124;5.196;2024-02-28T04:51:42;101843.00;;;15.30
20733;BMP180;10527;52.124;5.196;2024-02-28T04:54:10;101845.00;;;15.40
20733;BMP180;10527;52.124;5.196;2024-02-28T04:56:41;101849.00;;;15.40
20733;BMP180;10527;52.124;5.196;2024-02-28T04:59:11;101853.00;;;15.40
20733;BMP180;10527;52.124;5.196;2024-02-28T05:01:39;101852.00;;;15.40
20733;BMP180;10527;52.124;5.196;2024-02-28T05:04:09;101852.00;;;15.40
20733;BMP180;10527;52.124;5.196;2024-02-28T05:06:37;101857.00;;;15.40
20733;BMP180;10527;52.124;5.196;2024-02-28T05:09:06;101851.00;;;15.40
20733;BMP180;10527;52.124;5.196;2024-02-28T05:11:34;101855.00;;;15.40
20733;BMP180;10527;52.124;5.196;2024-02-28T05:14:02;101852.00;;;15.40
20733;BMP180;10527;52.124;5.196;2024-02-28T05:16:29;101857.00;;;15.40
20733;BMP180;10527;52.124;5.196;2024-02-28T05:18:57;101851.00;;;15.40
20733;BMP180;10527;52.124;5.196;2024-02-28T05:21:24;101856.00;;;15.40
20733;BMP180;10527;52.124;5.196;2024-02-28T05:23:52;101858.00;;;15.30
20733;BMP180;10527;52.124;5.196;2024-02-28T05:26:19;101862.00;;;15.30
20733;BMP180;10527;52.124;5.196;2024-02-28T05:28:47;101858.00;;;15.30
20733;BMP180;10527;52.124;5.196;2024-02-28T05:33:49;101843.00;;;15.30
20733;BMP180;10527;52.124;5.196;2024-02-28T05:36:17;101854.00;;;15.30
20733;BMP180;10527;52.124;5.196;2024-02-28T05:38:46;101850.00;;;15.40
20733;BMP180;10527;52.124;5.196;2024-02-28T05:41:13;101848.00;;;15.40
20733;BMP180;10527;52.124;5.196;2024-02-28T05:43:41;101843.00;;;15.40
20733;BMP180;10527;52.124;5.196;2024-02-28T05:46:08;101847.00;;;15.40
20733;BMP180;10527;52.124;5.196;2024-02-28T05:48:36;101845.00;;;15.40
20733;BMP180;10527;52.124;5.196;2024-02-28T05:51:04;101852.00;;;15.40
20733;BMP180;10527;52.124;5.196;2024-02-28T05:53:31;101849.00;;;15.40
20733;BMP180;10527;52.124;5.196;2024-02-28T05:56:09;101854.00;;;15.40
20733;BMP180;10527;52.124;5.196;2024-02-28T05:58:44;101850.00;;;15.40
20733;BMP180;10527;52.124;5.196;2024-02-28T06:01:17;101858.00;;;15.40
20733;BMP180;10527;52.124;5.196;2024-02-28T06:03:47;101851.00;;;15.40
20733;BMP180;10527;52.124;5.196;2024-02-28T06:06:15;101855.00;;;15.40
20733;BMP180;10527;52.124;5.196;2024-02-28T06:08:43;101857.00;;;15.40
20733;BMP180;10527;52.124;5.196;2024-02-28T06:11:11;101856.00;;;15.40
20733;BMP180;10527;52.124;5.196;2024-02-28T06:13:41;101855.00;;;15.40
20733;BMP180;10527;52.124;5.196;2024-02-28T06:16:13;101852.00;;;15.30
20733;BMP180;10527;52.124;5.196;2024-02-28T06:18:41;101858.00;;;15.40
20733;BMP180;10527;52.124;5.196;2024-02-28T06:21:08;101855.00;;;15.40
20733;BMP180;10527;52.124;5.196;2024-02-28T06:23:36;101870.00;;;15.40
20733;BMP180;10527;52.124;5.196;2024-02-28T06:26:03;101859.00;;;15.40
20733;BMP180;10527;52.124;5.196;2024-02-28T06:28:31;101869.00;;;15.50
20733;BMP180;10527;52.124;5.196;2024-02-28T06:30:59;101865.00;;;15.50
20733;BMP180;10527;52.124;5.196;2024-02-28T06:33:27;101878.00;;;15.50
20733;BMP180;10527;52.124;5.196;2024-02-28T06:35:55;101878.00;;;15.50
20733;BMP180;10527;52.124;5.196;2024-02-28T06:38:22;101872.00;;;15.50
20733;BMP180;10527;52.124;5.196;2024-02-28T06:40:50;101877.00;;;15.50
20733;BMP180;10527;52.124;5.196;2024-02-28T06:43:19;101885.00;;;15.40
20733;BMP180;10527;52.124;5.196;2024-02-28T06:45:46;101899.00;;;15.40
20733;BMP180;10527;52.124;5.196;2024-02-28T06:48:14;101886.00;;;15.40
20733;BMP180;10527;52.124;5.196;2024-02-28T06:50:41;101888.00;;;15.40
20733;BMP180;10527;52.124;5.196;2024-02-28T06:53:09;101897.00;;;15.40
20733;BMP180;10527;52.124;5.196;2024-02-28T06:55:36;101912.00;;;15.50
20733;BMP180;10527;52.124;5.196;2024-02-28T06:58:04;101909.00;;;15.50
20733;BMP180;10527;52.124;5.196;2024-02-28T07:00:31;101916.00;;;15.50
20733;BMP180;10527;52.124;5.196;2024-02-28T07:02:59;101915.00;;;15.50
20733;BMP180;10527;52.124;5.196;2024-02-28T07:05:27;101903.00;;;15.50
20733;BMP180;10527;52.124;5.196;2024-02-28T07:07:55;101915.00;;;15.60
20733;BMP180;10527;52.124;5.196;2024-02-28T07:10:23;101915.00;;;15.60
20733;BMP180;10527;52.124;5.196;2024-02-28T07:12:50;101917.00;;;15.60
20733;BMP180;10527;52.124;5.196;2024-02-28T07:15:18;101920.00;;;15.60
20733;BMP180;10527;52.124;5.196;2024-02-28T07:17:48;101917.00;;;15.60
20733;BMP180;10527;52.124;5.196;2024-02-28T07:20:16;101913.00;;;15.60
20733;BMP180;10527;52.124;5.196;2024-02-28T07:22:43;101915.00;;;15.60
20733;BMP180;10527;52.124;5.196;2024-02-28T07:25:11;101910.00;;;15.60
20733;BMP180;10527;52.124;5.196;2024-02-28T07:27:38;101918.00;;;15.60
20733;BMP180;10527;52.124;5.196;2024-02-28T07:30:06;101926.00;;;15.70
20733;BMP180;10527;52.124;5.196;2024-02-28T07:32:35;101927.00;;;15.70
20733;BMP180;10527;52.124;5.196;2024-02-28T07:35:04;101935.00;;;15.70
20733;BMP180;10527;52.124;5.196;2024-02-28T07:37:31;101937.00;;;15.80
20733;BMP180;10527;52.124;5.196;2024-02-28T07:39:59;101937.00;;;15.80
20733;BMP180;10527;52.124;5.196;2024-02-28T07:42:27;101947.00;;;15.80
20733;BMP180;10527;52.124;5.196;2024-02-28T07:44:55;101952.00;;;15.90
20733;BMP180;10527;52.124;5.196;2024-02-28T07:47:25;101950.00;;;15.90
20733;BMP180;10527;52.124;5.196;2024-02-28T07:49:52;101954.00;;;15.90
20733;BMP180;10527;52.124;5.196;2024-02-28T07:52:21;101944.00;;;15.90
20733;BMP180;10527;52.124;5.196;2024-02-28T07:54:49;101955.00;;;15.90
20733;BMP180;10527;52.124;5.196;2024-02-28T07:57:16;101954.00;;;15.90
20733;BMP180;10527;52.124;5.196;2024-02-28T07:59:45;101955.00;;;15.90
20733;BMP180;10527;52.124;5.196;2024-02-28T08:02:12;101956.00;;;15.90
20733;BMP180;10527;52.124;5.196;2024-02-28T08:04:40;101957.00;;;15.90
20733;BMP180;10527;52.124;5.196;2024-02-28T08:07:08;101961.00;;;15.90
20733;BMP180;10527;52.124;5.196;2024-02-28T08:09:35;101965.00;;;15.90
20733;BMP180;10527;52.124;5.196;2024-02-28T08:12:03;101962.00;;;15.90
20733;BMP180;10527;52.124;5.196;2024-02-28T08:14:30;101971.00;;;15.90
20733;BMP180;10527;52.124;5.196;2024-02-28T08:16:59;101973.00;;;15.90
20733;BMP180;10527;52.124;5.196;2024-02-28T08:19:27;101976.00;;;15.90
20733;BMP180;10527;52.124;5.196;2024-02-28T08:21:54;101977.00;;;16.00
20733;BMP180;10527;52.124;5.196;2024-02-28T08:24:22;101983.00;;;16.00
20733;BMP180;10527;52.124;5.196;2024-02-28T08:26:49;101978.00;;;16.00
20733;BMP180;10527;52.124;5.196;2024-02-28T08:29:16;101978.00;;;16.00
20733;BMP180;10527;52.124;5.196;2024-02-28T08:31:44;101986.00;;;16.00
20733;BMP180;10527;52.124;5.196;2024-02-28T08:34:16;101988.00;;;16.00
20733;BMP180;10527;52.124;5.196;2024-02-28T08:36:48;101985.00;;;16.00
20733;BMP180;10527;52.124;5.196;2024-02-28T08:39:30;101994.00;;;16.00
20733;BMP180;10527;52.124;5.196;2024-02-28T08:42:02;101995.00;;;16.10
20733;BMP180;10527;52.124;5.196;2024-02-28T08:44:30;101993.00;;;16.10
20733;BMP180;10527;52.124;5.196;2024-02-28T08:46:57;101992.00;;;16.10
20733;BMP180;10527;52.124;5.196;2024-02-28T08:49:25;101993.00;;;16.10
20733;BMP180;10527;52.124;5.196;2024-02-28T08:51:53;101984.00;;;16.20
20733;BMP180;10527;52.124;5.196;2024-02-28T08:54:21;101986.00;;;16.20
20733;BMP180;10527;52.124;5.196;2024-02-28T08:56:49;101979.00;;;16.20
20733;BMP180;10527;52.124;5.196;2024-02-28T08:59:26;101984.00;;;16.20
20733;BMP180;10527;52.124;5.196;2024-02-28T09:01:54;101989.00;;;16.20
20733;BMP180;10527;52.124;5.196;2024-02-28T09:04:21;101981.00;;;16.30
20733;BMP180;10527;52.124;5.196;2024-02-28T09:06:49;101987.00;;;16.30
20733;BMP180;10527;52.124;5.196;2024-02-28T09:09:16;101984.00;;;16.40
20733;BMP180;10527;52.124;5.196;2024-02-28T09:11:44;101980.00;;;16.40
20733;BMP180;10527;52.124;5.196;2024-02-28T09:14:12;101973.00;;;16.50
20733;BMP180;10527;52.124;5.196;2024-02-28T09:16:40;101979.00;;;16.50
20733;BMP180;10527;52.124;5.196;2024-02-28T09:19:07;101976.00;;;16.60
20733;BMP180;10527;52.124;5.196;2024-02-28T09:21:35;101980.00;;;16.70
20733;BMP180;10527;52.124;5.196;2024-02-28T09:24:02;101978.00;;;16.70
20733;BMP180;10527;52.124;5.196;2024-02-28T09:26:30;101974.00;;;16.70
20733;BMP180;10527;52.124;5.196;2024-02-28T09:28:57;101975.00;;;16.80
20733;BMP180;10527;52.124;5.196;2024-02-28T09:31:24;101981.00;;;16.80
20733;BMP180;10527;52.124;5.196;2024-02-28T09:33:52;101980.00;;;16.80
20733;BMP180;10527;52.124;5.196;2024-02-28T09:36:20;101985.00;;;16.90
20733;BMP180;10527;52.124;5.196;2024-02-28T09:38:47;101983.00;;;16.90
20733;BMP180;10527;52.124;5.196;2024-02-28T09:41:16;101983.00;;;17.00
20733;BMP180;10527;52.124;5.196;2024-02-28T09:43:47;101981.00;;;17.00
20733;BMP180;10527;52.124;5.196;2024-02-28T09:46:14;101989.00;;;17.10
20733;BMP180;10527;52.124;5.196;2024-02-28T09:48:43;101997.00;;;17.10
20733;BMP180;10527;52.124;5.196;2024-02-28T09:51:18;102002.00;;;17.20
20733;BMP180;10527;52.124;5.196;2024-02-28T09:53:47;102011.00;;;17.30
20733;BMP180;10527;52.124;5.196;2024-02-28T09:56:16;102012.00;;;17.40
20733;BMP180;10527;52.124;5.196;2024-02-28T09:58:43;102007.00;;;17.50
20733;BMP180;10527;52.124;5.196;2024-02-28T10:01:13;102022.00;;;17.50
20733;BMP180;10527;52.124;5.196;2024-02-28T10:03:45;102010.00;;;17.60
20733;BMP180;10527;52.124;5.196;2024-02-28T10:06:12;102023.00;;;17.70
20733;BMP180;10527;52.124;5.196;2024-02-28T10:08:41;102008.00;;;17.70
20733;BMP180;10527;52.124;5.196;2024-02-28T10:11:10;102007.00;;;17.80
20733;BMP180;10527;52.124;5.196;2024-02-28T10:13:38;101995.00;;;17.80
20733;BMP180;10527;52.124;5.196;2024-02-28T10:16:07;101996.00;;;17.90
20733;BMP180;10527;52.124;5.196;2024-02-28T10:18:36;101994.00;;;17.90
20733;BMP180;10527;52.124;5.196;2024-02-28T10:21:04;101997.00;;;17.90
20733;BMP180;10527;52.124;5.196;2024-02-28T10:23:31;101993.00;;;18.00
20733;BMP180;10527;52.124;5.196;2024-02-28T10:26:01;101993.00;;;18.10
20733;BMP180;10527;52.124;5.196;2024-02-28T10:28:29;101988.00;;;18.10
20733;BMP180;10527;52.124;5.196;2024-02-28T10:30:57;101987.00;;;18.20
20733;BMP180;10527;52.124;5.196;2024-02-28T10:33:27;101995.00;;;18.30
20733;BMP180;10527;52.124;5.196;2024-02-28T10:35:56;101993.00;;;18.40
20733;BMP180;10527;52.124;5.196;2024-02-28T10:38:26;101996.00;;;18.40
20733;BMP180;10527;52.124;5.196;2024-02-28T10:40:54;101987.00;;;18.50
20733;BMP180;10527;52.124;5.196;2024-02-28T10:43:23;101991.00;;;18.60
20733;BMP180;10527;52.124;5.196;2024-02-28T10:45:51;101985.00;;;18.60
20733;BMP180;10527;52.124;5.196;2024-02-28T10:48:39;101981.00;;;18.60
20733;BMP180;10527;52.124;5.196;2024-02-28T10:51:08;101990.00;;;18.60
20733;BMP180;10527;52.124;5.196;2024-02-28T10:53:40;101997.00;;;18.70
20733;BMP180;10527;52.124;5.196;2024-02-28T10:56:11;101980.00;;;18.70
20733;BMP180;10527;52.124;5.196;2024-02-28T10:58:50;101986.00;;;18.70
20733;BMP180;10527;52.124;5.196;2024-02-28T11:01:19;101983.00;;;18.70
20733;BMP180;10527;52.124;5.196;2024-02-28T11:03:49;101981.00;;;18.70
20733;BMP180;10527;52.124;5.196;2024-02-28T11:06:18;101991.00;;;18.70
20733;BMP180;10527;52.124;5.196;2024-02-28T11:08:49;101987.00;;;18.70
20733;BMP180;10527;52.124;5.196;2024-02-28T11:11:22;101983.00;;;18.70
20733;BMP180;10527;52.124;5.196;2024-02-28T11:13:56;101989.00;;;18.80
20733;BMP180;10527;52.124;5.196;2024-02-28T11:16:32;101987.00;;;18.80
20733;BMP180;10527;52.124;5.196;2024-02-28T11:19:01;101979.00;;;18.80
20733;BMP180;10527;52.124;5.196;2024-02-28T11:21:29;101978.00;;;18.80
20733;BMP180;10527;52.124;5.196;2024-02-28T11:24:01;101980.00;;;18.80
20733;BMP180;10527;52.124;5.196;2024-02-28T11:26:28;101976.00;;;18.90
20733;BMP180;10527;52.124;5.196;2024-02-28T11:28:56;101968.00;;;18.90
20733;BMP180;10527;52.124;5.196;2024-02-28T11:31:23;101972.00;;;19.00
20733;BMP180;10527;52.124;5.196;2024-02-28T11:33:52;101983.00;;;19.10
20733;BMP180;10527;52.124;5.196;2024-02-28T11:36:21;101980.00;;;19.10
20733;BMP180;10527;52.124;5.196;2024-02-28T11:38:49;101975.00;;;19.10
20733;BMP180;10527;52.124;5.196;2024-02-28T11:41:28;101976.00;;;19.10
20733;BMP180;10527;52.124;5.196;2024-02-28T11:43:55;101964.00;;;19.10
20733;BMP180;10527;52.124;5.196;2024-02-28T11:46:23;101962.00;;;19.20
20733;BMP180;10527;52.124;5.196;2024-02-28T11:48:52;101962.00;;;19.20
20733;BMP180;10527;52.124;5.196;2024-02-28T11:51:21;101966.00;;;19.20
20733;BMP180;10527;52.124;5.196;2024-02-28T11:53:49;101963.00;;;19.20
20733;BMP180;10527;52.124;5.196;2024-02-28T11:56:18;101959.00;;;19.20
20733;BMP180;10527;52.124;5.196;2024-02-28T11:58:52;101961.00;;;19.30
20733;BMP180;10527;52.124;5.196;2024-02-28T12:01:35;101967.00;;;19.40
20733;BMP180;10527;52.124;5.196;2024-02-28T12:04:05;101959.00;;;19.40
20733;BMP180;10527;52.124;5.196;2024-02-28T12:06:38;101955.00;;;19.40
20733;BMP180;10527;52.124;5.196;2024-02-28T12:09:11;101956.00;;;19.50
20733;BMP180;10527;52.124;5.196;2024-02-28T12:11:54;101953.00;;;19.50
20733;BMP180;10527;52.124;5.196;2024-02-28T12:14:21;101958.00;;;19.50
20733;BMP180;10527;52.124;5.196;2024-02-28T12:16:48;101952.00;;;19.50
20733;BMP180;10527;52.124;5.196;2024-02-28T12:19:16;101952.00;;;19.50
20733;BMP180;10527;52.124;5.196;2024-02-28T12:21:47;101944.00;;;19.50
20733;BMP180;10527;52.124;5.196;2024-02-28T12:24:14;101960.00;;;19.50
20733;BMP180;10527;52.124;5.196;2024-02-28T12:26:42;101957.00;;;19.60
20733;BMP180;10527;52.124;5.196;2024-02-28T12:29:09;101952.00;;;19.60
20733;BMP180;10527;52.124;5.196;2024-02-28T12:31:38;101942.00;;;19.60
20733;BMP180;10527;52.124;5.196;2024-02-28T12:34:06;101944.00;;;19.70
20733;BMP180;10527;52.124;5.196;2024-02-28T12:36:34;101940.00;;;19.70
20733;BMP180;10527;52.124;5.196;2024-02-28T12:39:02;101935.00;;;19.80
20733;BMP180;10527;52.124;5.196;2024-02-28T12:41:33;101931.00;;;19.80
20733;BMP180;10527;52.124;5.196;2024-02-28T12:44:02;101932.00;;;19.80
20733;BMP180;10527;52.124;5.196;2024-02-28T12:46:29;101938.00;;;19.80
20733;BMP180;10527;52.124;5.196;2024-02-28T12:48:58;101939.00;;;19.80
20733;BMP180;10527;52.124;5.196;2024-02-28T12:51:41;101928.00;;;19.80
20733;BMP180;10527;52.124;5.196;2024-02-28T12:54:10;101925.00;;;19.80
20733;BMP180;10527;52.124;5.196;2024-02-28T12:56:38;101922.00;;;19.80
20733;BMP180;10527;52.124;5.196;2024-02-28T12:59:07;101925.00;;;19.80
20733;BMP180;10527;52.124;5.196;2024-02-28T13:01:34;101927.00;;;19.90
20733;BMP180;10527;52.124;5.196;2024-02-28T13:04:03;101922.00;;;19.90
20733;BMP180;10527;52.124;5.196;2024-02-28T13:06:30;101924.00;;;19.90
20733;BMP180;10527;52.124;5.196;2024-02-28T13:08:58;101924.00;;;20.00
20733;BMP180;10527;52.124;5.196;2024-02-28T13:11:26;101930.00;;;20.00
20733;BMP180;10527;52.124;5.196;2024-02-28T13:13:55;101920.00;;;20.10
20733;BMP180;10527;52.124;5.196;2024-02-28T13:16:22;101914.00;;;20.10
20733;BMP180;10527;52.124;5.196;2024-02-28T13:18:49;101910.00;;;20.10
20733;BMP180;10527;52.124;5.196;2024-02-28T13:21:17;101914.00;;;20.10
20733;BMP180;10527;52.124;5.196;2024-02-28T13:23:45;101908.00;;;20.10
20733;BMP180;10527;52.124;5.196;2024-02-28T13:26:13;101911.00;;;20.10
20733;BMP180;10527;52.124;5.196;2024-02-28T13:28:45;101916.00;;;20.10
20733;BMP180;10527;52.124;5.196;2024-02-28T13:31:17;101908.00;;;20.10
20733;BMP180;10527;52.124;5.196;2024-02-28T13:33:44;101909.00;;;20.20
20733;BMP180;10527;52.124;5.196;2024-02-28T13:36:12;101910.00;;;20.20
20733;BMP180;10527;52.124;5.196;2024-02-28T13:38:39;101904.00;;;20.20
20733;BMP180;10527;52.124;5.196;2024-02-28T13:41:07;101894.00;;;20.20
20733;BMP180;10527;52.124;5.196;2024-02-28T13:43:34;101892.00;;;20.30
20733;BMP180;10527;52.124;5.196;2024-02-28T13:46:02;101890.00;;;20.30
20733;BMP180;10527;52.124;5.196;2024-02-28T13:48:30;101884.00;;;20.30
20733;BMP180;10527;52.124;5.196;2024-02-28T13:51:01;101879.00;;;20.30
20733;BMP180;10527;52.124;5.196;2024-02-28T13:53:31;101874.00;;;20.30
20733;BMP180;10527;52.124;5.196;2024-02-28T13:56:00;101870.00;;;20.30
20733;BMP180;10527;52.124;5.196;2024-02-28T13:58:28;101855.00;;;20.30
20733;BMP180;10527;52.124;5.196;2024-02-28T14:01:06;101849.00;;;20.30
20733;BMP180;10527;52.124;5.196;2024-02-28T14:03:34;101850.00;;;20.30
20733;BMP180;10527;52.124;5.196;2024-02-28T14:06:02;101853.00;;;20.30